sensor_id;sensor_type;location;lat;lon;timestamp;P1;durP1;ratioP1;P2;durP2;ratioP2
48205;SDS011;33995;48.202;16.260;2022-11-18T00:01:13;24.97;;;21.33;;
48205;SDS011;33995;48.202;16.260;2022-11-18T00:03:42;26.23;;;21.40;;
48205;SDS011;33995;48.202;16.260;2022-11-18T00:06:11;26.87;;;21.43;;
48205;SDS011;33995;48.202;16.260;2022-11-18T00:08:40;26.97;;;21.63;;
48205;SDS011;33995;48.202;16.260;2022-11-18T00:11:10;26.27;;;21.57;;
48205;SDS011;33995;48.202;16.260;2022-11-18T00:13:38;25.73;;;21.30;;
48205;SDS011;33995;48.202;16.260;2022-11-18T00:16:24;25.80;;;21.40;;
48205;SDS011;33995;48.202;16.260;2022-11-18T00:18:52;26.23;;;21.30;;
48205;SDS011;33995;48.202;16.260;2022-11-18T00:21:19;26.10;;;21.37;;
48205;SDS011;33995;48.202;16.260;2022-11-18T00:23:47;27.40;;;21.87;;
48205;SDS011;33995;48.202;16.260;2022-11-18T00:26:15;26.47;;;20.97;;
48205;SDS011;33995;48.202;16.260;2022-11-18T00:28:42;26.07;;;21.00;;
48205;SDS011;33995;48.202;16.260;2022-11-18T00:31:10;23.57;;;20.30;;
48205;SDS011;33995;48.202;16.260;2022-11-18T00:33:39;25.50;;;20.80;;
48205;SDS011;33995;48.202;16.260;2022-11-18T00:36:08;26.20;;;21.00;;
48205;SDS011;33995;48.202;16.260;2022-11-18T00:38:37;26.63;;;21.70;;
48205;SDS011;33995;48.202;16.260;2022-11-18T00:41:06;30.37;;;22.63;;
48205;SDS011;33995;48.202;16.260;2022-11-18T00:43:36;32.23;;;23.30;;
48205;SDS011;33995;48.202;16.260;2022-11-18T00:46:05;31.63;;;23.60;;
48205;SDS011;33995;48.202;16.260;2022-11-18T00:48:34;30.77;;;23.53;;
48205;SDS011;33995;48.202;16.260;2022-11-18T00:51:09;30.67;;;22.87;;
48205;SDS011;33995;48.202;16.260;2022-11-18T00:53:39;34.00;;;24.07;;
48205;SDS011;33995;48.202;16.260;2022-11-18T00:56:08;29.43;;;22.57;;
48205;SDS011;33995;48.202;16.260;2022-11-18T00:58:35;29.43;;;20.97;;
48205;SDS011;33995;48.202;16.260;2022-11-18T01:01:03;28.93;;;20.60;;
48205;SDS011;33995;48.202;16.260;2022-11-18T01:03:31;28.30;;;21.07;;
48205;SDS011;33995;48.202;16.260;2022-11-18T01:05:58;28.90;;;21.33;;
48205;SDS011;33995;48.202;16.260;2022-11-18T01:08:26;31.50;;;22.97;;
48205;SDS011;33995;48.202;16.260;2022-11-18T01:10:53;28.97;;;21.43;;
48205;SDS011;33995;48.202;16.260;2022-11-18T01:13:21;28.87;;;21.30;;
48205;SDS011;33995;48.202;16.260;2022-11-18T01:15:54;31.03;;;22.70;;
48205;SDS011;33995;48.202;16.260;2022-11-18T01:18:24;30.60;;;22.00;;
48205;SDS011;33995;48.202;16.260;2022-11-18T01:20:56;28.17;;;21.67;;
48205;SDS011;33995;48.202;16.260;2022-11-18T01:23:26;29.93;;;21.53;;
48205;SDS011;33995;48.202;16.260;2022-11-18T01:25:54;29.67;;;21.77;;
48205;SDS011;33995;48.202;16.260;2022-11-18T01:28:21;28.23;;;21.67;;
48205;SDS011;33995;48.202;16.260;2022-11-18T01:30:50;28.07;;;21.90;;
48205;SDS011;33995;48.202;16.260;2022-11-18T01:33:17;31.23;;;22.60;;
48205;SDS011;33995;48.202;16.260;2022-11-18T01:35:45;33.60;;;22.97;;
48205;SDS011;33995;48.202;16.260;2022-11-18T01:38:12;31.67;;;22.90;;
48205;SDS011;33995;48.202;16.260;2022-11-18T01:40:40;30.27;;;23.03;;
48205;SDS011;33995;48.202;16.260;2022-11-18T01:43:10;30.87;;;22.33;;
48205;SDS011;33995;48.202;16.260;2022-11-18T01:45:41;32.60;;;22.97;;
48205;SDS011;33995;48.202;16.260;2022-11-18T01:48:24;32.30;;;23.03;;
48205;SDS011;33995;48.202;16.260;2022-11-18T01:51:02;32.17;;;22.90;;
48205;SDS011;33995;48.202;16.260;2022-11-18T01:53:38;30.23;;;22.97;;
48205;SDS011;33995;48.202;16.260;2022-11-18T01:56:13;30.67;;;22.40;;
48205;SDS011;33995;48.202;16.260;2022-11-18T01:58:48;33.50;;;23.43;;
48205;SDS011;33995;48.202;16.260;2022-11-18T02:01:23;33.77;;;23.00;;
48205;SDS011;33995;48.202;16.260;2022-11-18T02:03:50;33.00;;;23.43;;
48205;SDS011;33995;48.202;16.260;2022-11-18T02:06:19;34.30;;;24.20;;
48205;SDS011;33995;48.202;16.260;2022-11-18T02:08:47;32.00;;;23.23;;
48205;SDS011;33995;48.202;16.260;2022-11-18T02:11:15;32.10;;;23.17;;
48205;SDS011;33995;48.202;16.260;2022-11-18T02:14:05;34.50;;;24.57;;
48205;SDS011;33995;48.202;16.260;2022-11-18T02:16:48;35.93;;;23.70;;
48205;SDS011;33995;48.202;16.260;2022-11-18T02:30:18;34.70;;;24.03;;
48205;SDS011;33995;48.202;16.260;2022-11-18T02:33:03;35.70;;;24.83;;
48205;SDS011;33995;48.202;16.260;2022-11-18T02:35:40;39.23;;;25.40;;
48205;SDS011;33995;48.202;16.260;2022-11-18T02:41:24;35.47;;;24.77;;
48205;SDS011;33995;48.202;16.260;2022-11-18T02:43:46;36.30;;;24.53;;
48205;SDS011;33995;48.202;16.260;2022-11-18T02:46:27;34.27;;;25.40;;
48205;SDS011;33995;48.202;16.260;2022-11-18T02:49:00;35.00;;;24.67;;
48205;SDS011;33995;48.202;16.260;2022-11-18T02:51:29;33.83;;;23.83;;
48205;SDS011;33995;48.202;16.260;2022-11-18T02:54:00;38.07;;;25.90;;
48205;SDS011;33995;48.202;16.260;2022-11-18T02:56:31;35.03;;;24.40;;
48205;SDS011;33995;48.202;16.260;2022-11-18T02:59:01;36.10;;;26.20;;
48205;SDS011;33995;48.202;16.260;2022-11-18T03:01:31;35.97;;;24.67;;
48205;SDS011;33995;48.202;16.260;2022-11-18T03:04:00;36.57;;;24.50;;
48205;SDS011;33995;48.202;16.260;2022-11-18T03:06:38;34.90;;;24.80;;
48205;SDS011;33995;48.202;16.260;2022-11-18T03:09:24;32.53;;;23.57;;
48205;SDS011;33995;48.202;16.260;2022-11-18T03:22:59;34.43;;;22.60;;
48205;SDS011;33995;48.202;16.260;2022-11-18T03:25:30;34.33;;;23.13;;
48205;SDS011;33995;48.202;16.260;2022-11-18T03:30:43;37.27;;;23.50;;
48205;SDS011;33995;48.202;16.260;2022-11-18T03:33:17;35.27;;;22.47;;
48205;SDS011;33995;48.202;16.260;2022-11-18T03:35:50;37.07;;;23.23;;
48205;SDS011;33995;48.202;16.260;2022-11-18T03:38:25;34.40;;;23.13;;
48205;SDS011;33995;48.202;16.260;2022-11-18T03:41:00;36.20;;;22.63;;
48205;SDS011;33995;48.202;16.260;2022-11-18T03:43:33;34.13;;;23.27;;
48205;SDS011;33995;48.202;16.260;2022-11-18T03:46:06;38.17;;;23.70;;
48205;SDS011;33995;48.202;16.260;2022-11-18T03:48:41;32.97;;;23.10;;
48205;SDS011;33995;48.202;16.260;2022-11-18T03:51:15;37.53;;;24.43;;
48205;SDS011;33995;48.202;16.260;2022-11-18T03:53:56;39.90;;;24.63;;
48205;SDS011;33995;48.202;16.260;2022-11-18T03:56:47;35.63;;;22.63;;
48205;SDS011;33995;48.202;16.260;2022-11-18T04:02:13;35.17;;;23.47;;
48205;SDS011;33995;48.202;16.260;2022-11-18T04:04:46;33.47;;;22.73;;
48205;SDS011;33995;48.202;16.260;2022-11-18T04:07:23;37.23;;;23.27;;
48205;SDS011;33995;48.202;16.260;2022-11-18T04:15:35;36.10;;;22.93;;
48205;SDS011;33995;48.202;16.260;2022-11-18T04:18:05;37.17;;;22.20;;
48205;SDS011;33995;48.202;16.260;2022-11-18T04:20:32;28.73;;;20.47;;
48205;SDS011;33995;48.202;16.260;2022-11-18T04:23:00;33.33;;;21.77;;
48205;SDS011;33995;48.202;16.260;2022-11-18T04:25:27;28.37;;;19.93;;
48205;SDS011;33995;48.202;16.260;2022-11-18T04:27:55;30.40;;;19.07;;
48205;SDS011;33995;48.202;16.260;2022-11-18T04:30:22;29.23;;;19.07;;
48205;SDS011;33995;48.202;16.260;2022-11-18T04:32:50;27.60;;;18.47;;
48205;SDS011;33995;48.202;16.260;2022-11-18T04:35:17;26.30;;;18.07;;
48205;SDS011;33995;48.202;16.260;2022-11-18T04:37:44;24.23;;;17.30;;
48205;SDS011;33995;48.202;16.260;2022-11-18T04:40:12;25.33;;;17.17;;
48205;SDS011;33995;48.202;16.260;2022-11-18T04:42:39;24.57;;;17.27;;
48205;SDS011;33995;48.202;16.260;2022-11-18T04:45:07;24.10;;;17.40;;
48205;SDS011;33995;48.202;16.260;2022-11-18T04:47:36;25.50;;;16.80;;
48205;SDS011;33995;48.202;16.260;2022-11-18T04:50:04;22.53;;;16.20;;
48205;SDS011;33995;48.202;16.260;2022-11-18T04:52:32;22.20;;;16.43;;
48205;SDS011;33995;48.202;16.260;2022-11-18T04:54:59;21.83;;;15.73;;
48205;SDS011;33995;48.202;16.260;2022-11-18T04:57:27;23.13;;;16.33;;
48205;SDS011;33995;48.202;16.260;2022-11-18T04:59:54;21.90;;;16.17;;
48205;SDS011;33995;48.202;16.260;2022-11-18T05:02:21;23.33;;;17.27;;
48205;SDS011;33995;48.202;16.260;2022-11-18T05:04:49;21.77;;;16.33;;
48205;SDS011;33995;48.202;16.260;2022-11-18T05:07:16;24.37;;;16.17;;
48205;SDS011;33995;48.202;16.260;2022-11-18T05:09:44;25.10;;;17.47;;
48205;SDS011;33995;48.202;16.260;2022-11-18T05:12:12;24.63;;;17.27;;
48205;SDS011;33995;48.202;16.260;2022-11-18T05:14:59;24.70;;;17.33;;
48205;SDS011;33995;48.202;16.260;2022-11-18T05:17:27;27.03;;;17.97;;
48205;SDS011;33995;48.202;16.260;2022-11-18T05:19:54;25.33;;;18.03;;
48205;SDS011;33995;48.202;16.260;2022-11-18T05:22:21;25.47;;;17.90;;
48205;SDS011;33995;48.202;16.260;2022-11-18T05:24:49;24.10;;;17.33;;
48205;SDS011;33995;48.202;16.260;2022-11-18T05:27:16;23.27;;;17.13;;
48205;SDS011;33995;48.202;16.260;2022-11-18T05:29:44;24.47;;;17.27;;
48205;SDS011;33995;48.202;16.260;2022-11-18T05:32:11;26.23;;;18.93;;
48205;SDS011;33995;48.202;16.260;2022-11-18T05:34:41;24.57;;;18.07;;
48205;SDS011;33995;48.202;16.260;2022-11-18T05:37:09;25.90;;;18.57;;
48205;SDS011;33995;48.202;16.260;2022-11-18T05:39:37;22.03;;;17.27;;
48205;SDS011;33995;48.202;16.260;2022-11-18T05:42:04;22.70;;;17.70;;
48205;SDS011;33995;48.202;16.260;2022-11-18T05:44:50;22.70;;;16.97;;
48205;SDS011;33995;48.202;16.260;2022-11-18T05:47:24;22.13;;;17.23;;
48205;SDS011;33995;48.202;16.260;2022-11-18T05:49:52;22.20;;;16.40;;
48205;SDS011;33995;48.202;16.260;2022-11-18T05:52:19;21.37;;;16.53;;
48205;SDS011;33995;48.202;16.260;2022-11-18T05:54:49;21.70;;;16.73;;
48205;SDS011;33995;48.202;16.260;2022-11-18T05:57:17;21.03;;;16.47;;
48205;SDS011;33995;48.202;16.260;2022-11-18T05:59:44;22.07;;;17.30;;
48205;SDS011;33995;48.202;16.260;2022-11-18T06:02:13;23.00;;;17.00;;
48205;SDS011;33995;48.202;16.260;2022-11-18T06:05:02;20.97;;;16.73;;
48205;SDS011;33995;48.202;16.260;2022-11-18T06:07:35;24.40;;;17.27;;
48205;SDS011;33995;48.202;16.260;2022-11-18T06:10:05;23.83;;;17.50;;
48205;SDS011;33995;48.202;16.260;2022-11-18T06:12:34;23.63;;;18.17;;
48205;SDS011;33995;48.202;16.260;2022-11-18T06:15:08;21.87;;;17.20;;
48205;SDS011;33995;48.202;16.260;2022-11-18T06:17:43;26.60;;;18.07;;
48205;SDS011;33995;48.202;16.260;2022-11-18T06:20:12;25.60;;;18.37;;
48205;SDS011;33995;48.202;16.260;2022-11-18T06:22:42;23.30;;;17.97;;
48205;SDS011;33995;48.202;16.260;2022-11-18T06:25:12;22.37;;;17.43;;
48205;SDS011;33995;48.202;16.260;2022-11-18T06:27:40;24.50;;;17.53;;
48205;SDS011;33995;48.202;16.260;2022-11-18T06:30:08;23.17;;;16.97;;
48205;SDS011;33995;48.202;16.260;2022-11-18T06:32:36;20.53;;;16.10;;
48205;SDS011;33995;48.202;16.260;2022-11-18T06:35:03;19.83;;;15.23;;
48205;SDS011;33995;48.202;16.260;2022-11-18T06:37:31;20.23;;;15.37;;
48205;SDS011;33995;48.202;16.260;2022-11-18T06:39:59;18.73;;;14.63;;
48205;SDS011;33995;48.202;16.260;2022-11-18T06:42:26;20.03;;;14.97;;
48205;SDS011;33995;48.202;16.260;2022-11-18T06:45:13;19.23;;;14.53;;
48205;SDS011;33995;48.202;16.260;2022-11-18T06:47:41;17.77;;;14.43;;
48205;SDS011;33995;48.202;16.260;2022-11-18T06:50:08;17.20;;;14.10;;
48205;SDS011;33995;48.202;16.260;2022-11-18T06:52:36;17.97;;;14.30;;
48205;SDS011;33995;48.202;16.260;2022-11-18T06:55:03;20.63;;;16.00;;
48205;SDS011;33995;48.202;16.260;2022-11-18T06:57:33;21.20;;;16.30;;
48205;SDS011;33995;48.202;16.260;2022-11-18T07:00:01;25.53;;;17.00;;
48205;SDS011;33995;48.202;16.260;2022-11-18T07:02:29;23.40;;;17.20;;
48205;SDS011;33995;48.202;16.260;2022-11-18T07:04:57;21.50;;;16.27;;
48205;SDS011;33995;48.202;16.260;2022-11-18T07:07:24;20.10;;;14.87;;
48205;SDS011;33995;48.202;16.260;2022-11-18T07:09:52;19.73;;;14.30;;
48205;SDS011;33995;48.202;16.260;2022-11-18T07:12:19;18.23;;;13.83;;
48205;SDS011;33995;48.202;16.260;2022-11-18T07:14:46;19.53;;;13.87;;
48205;SDS011;33995;48.202;16.260;2022-11-18T07:17:14;16.90;;;13.40;;
48205;SDS011;33995;48.202;16.260;2022-11-18T07:19:41;18.20;;;13.87;;
48205;SDS011;33995;48.202;16.260;2022-11-18T07:22:08;18.47;;;13.33;;
48205;SDS011;33995;48.202;16.260;2022-11-18T07:24:36;17.60;;;13.13;;
48205;SDS011;33995;48.202;16.260;2022-11-18T07:27:03;17.03;;;13.33;;
48205;SDS011;33995;48.202;16.260;2022-11-18T07:29:31;18.50;;;13.57;;
48205;SDS011;33995;48.202;16.260;2022-11-18T07:31:58;17.90;;;13.57;;
48205;SDS011;33995;48.202;16.260;2022-11-18T07:34:25;18.67;;;13.17;;
48205;SDS011;33995;48.202;16.260;2022-11-18T07:36:53;17.57;;;13.47;;
48205;SDS011;33995;48.202;16.260;2022-11-18T07:39:20;15.17;;;12.93;;
48205;SDS011;33995;48.202;16.260;2022-11-18T07:41:48;17.77;;;13.37;;
48205;SDS011;33995;48.202;16.260;2022-11-18T07:44:15;18.77;;;13.30;;
48205;SDS011;33995;48.202;16.260;2022-11-18T07:46:43;19.00;;;13.53;;
48205;SDS011;33995;48.202;16.260;2022-11-18T07:49:11;17.73;;;13.00;;
48205;SDS011;33995;48.202;16.260;2022-11-18T07:51:38;19.27;;;13.63;;
48205;SDS011;33995;48.202;16.260;2022-11-18T07:54:06;18.13;;;13.27;;
48205;SDS011;33995;48.202;16.260;2022-11-18T07:56:38;18.20;;;13.53;;
48205;SDS011;33995;48.202;16.260;2022-11-18T07:59:06;17.10;;;12.60;;
48205;SDS011;33995;48.202;16.260;2022-11-18T08:01:34;18.47;;;13.40;;
48205;SDS011;33995;48.202;16.260;2022-11-18T08:04:06;18.10;;;13.13;;
48205;SDS011;33995;48.202;16.260;2022-11-18T08:06:34;20.17;;;13.67;;
48205;SDS011;33995;48.202;16.260;2022-11-18T08:09:02;19.70;;;14.40;;
48205;SDS011;33995;48.202;16.260;2022-11-18T08:11:30;18.53;;;13.93;;
48205;SDS011;33995;48.202;16.260;2022-11-18T08:13:58;18.90;;;14.00;;
48205;SDS011;33995;48.202;16.260;2022-11-18T08:16:26;18.63;;;14.03;;
48205;SDS011;33995;48.202;16.260;2022-11-18T08:18:54;18.20;;;13.10;;
48205;SDS011;33995;48.202;16.260;2022-11-18T08:21:21;19.37;;;13.93;;
48205;SDS011;33995;48.202;16.260;2022-11-18T08:23:50;18.90;;;13.20;;
48205;SDS011;33995;48.202;16.260;2022-11-18T08:26:21;18.10;;;13.17;;
48205;SDS011;33995;48.202;16.260;2022-11-18T08:28:50;17.37;;;13.23;;
48205;SDS011;33995;48.202;16.260;2022-11-18T08:31:20;20.50;;;14.40;;
48205;SDS011;33995;48.202;16.260;2022-11-18T08:33:56;16.30;;;13.17;;
48205;SDS011;33995;48.202;16.260;2022-11-18T08:36:30;19.03;;;14.77;;
48205;SDS011;33995;48.202;16.260;2022-11-18T08:38:59;16.93;;;13.33;;
48205;SDS011;33995;48.202;16.260;2022-11-18T08:43:58;17.03;;;13.30;;
48205;SDS011;33995;48.202;16.260;2022-11-18T08:46:26;16.40;;;13.37;;
48205;SDS011;33995;48.202;16.260;2022-11-18T08:48:54;17.00;;;12.60;;
48205;SDS011;33995;48.202;16.260;2022-11-18T08:51:22;15.10;;;12.07;;
48205;SDS011;33995;48.202;16.260;2022-11-18T08:53:50;14.53;;;12.57;;
48205;SDS011;33995;48.202;16.260;2022-11-18T08:56:18;14.57;;;12.47;;
48205;SDS011;33995;48.202;16.260;2022-11-18T08:58:47;16.37;;;12.67;;
48205;SDS011;33995;48.202;16.260;2022-11-18T09:01:15;15.53;;;12.73;;
48205;SDS011;33995;48.202;16.260;2022-11-18T09:03:43;14.63;;;12.23;;
48205;SDS011;33995;48.202;16.260;2022-11-18T09:06:11;15.23;;;12.37;;
48205;SDS011;33995;48.202;16.260;2022-11-18T09:08:41;14.60;;;12.50;;
48205;SDS011;33995;48.202;16.260;2022-11-18T09:11:13;14.47;;;12.73;;
48205;SDS011;33995;48.202;16.260;2022-11-18T09:13:42;14.57;;;12.33;;
48205;SDS011;33995;48.202;16.260;2022-11-18T09:16:30;14.37;;;12.50;;
48205;SDS011;33995;48.202;16.260;2022-11-18T09:18:59;14.10;;;11.80;;
48205;SDS011;33995;48.202;16.260;2022-11-18T09:21:47;14.20;;;12.00;;
48205;SDS011;33995;48.202;16.260;2022-11-18T09:24:14;15.20;;;12.23;;
48205;SDS011;33995;48.202;16.260;2022-11-18T09:26:43;13.40;;;11.93;;
48205;SDS011;33995;48.202;16.260;2022-11-18T09:29:11;14.57;;;12.73;;
48205;SDS011;33995;48.202;16.260;2022-11-18T09:31:38;13.37;;;11.93;;
48205;SDS011;33995;48.202;16.260;2022-11-18T09:34:06;13.57;;;10.97;;
48205;SDS011;33995;48.202;16.260;2022-11-18T09:36:36;12.67;;;10.60;;
48205;SDS011;33995;48.202;16.260;2022-11-18T09:39:03;12.57;;;10.97;;
48205;SDS011;33995;48.202;16.260;2022-11-18T09:41:47;12.17;;;10.80;;
48205;SDS011;33995;48.202;16.260;2022-11-18T09:47:27;12.63;;;11.33;;
48205;SDS011;33995;48.202;16.260;2022-11-18T09:50:06;11.63;;;9.80;;
48205;SDS011;33995;48.202;16.260;2022-11-18T09:55:46;10.17;;;9.07;;
48205;SDS011;33995;48.202;16.260;2022-11-18T09:58:48;10.10;;;8.93;;
48205;SDS011;33995;48.202;16.260;2022-11-18T10:01:10;11.10;;;9.70;;
48205;SDS011;33995;48.202;16.260;2022-11-18T10:03:40;11.80;;;9.73;;
48205;SDS011;33995;48.202;16.260;2022-11-18T10:11:31;10.97;;;9.40;;
48205;SDS011;33995;48.202;16.260;2022-11-18T10:22:47;10.10;;;9.10;;
48205;SDS011;33995;48.202;16.260;2022-11-18T10:25:24;11.73;;;10.60;;
48205;SDS011;33995;48.202;16.260;2022-11-18T10:27:52;12.53;;;11.23;;
48205;SDS011;33995;48.202;16.260;2022-11-18T10:30:24;9.27;;;8.37;;
48205;SDS011;33995;48.202;16.260;2022-11-18T10:35:27;8.33;;;7.03;;
48205;SDS011;33995;48.202;16.260;2022-11-18T10:37:59;7.80;;;7.00;;
48205;SDS011;33995;48.202;16.260;2022-11-18T10:40:35;6.83;;;6.13;;
48205;SDS011;33995;48.202;16.260;2022-11-18T10:43:04;6.03;;;5.53;;
48205;SDS011;33995;48.202;16.260;2022-11-18T10:45:32;5.80;;;5.30;;
48205;SDS011;33995;48.202;16.260;2022-11-18T10:53:00;5.27;;;4.77;;
48205;SDS011;33995;48.202;16.260;2022-11-18T10:55:28;4.67;;;4.27;;
48205;SDS011;33995;48.202;16.260;2022-11-18T10:57:57;4.60;;;4.20;;
48205;SDS011;33995;48.202;16.260;2022-11-18T11:00:47;4.33;;;3.93;;
48205;SDS011;33995;48.202;16.260;2022-11-18T11:03:26;4.03;;;3.70;;
48205;SDS011;33995;48.202;16.260;2022-11-18T11:08:51;4.20;;;3.90;;
48205;SDS011;33995;48.202;16.260;2022-11-18T11:11:21;3.70;;;3.40;;
48205;SDS011;33995;48.202;16.260;2022-11-18T11:14:13;4.30;;;3.90;;
48205;SDS011;33995;48.202;16.260;2022-11-18T11:16:55;4.10;;;3.70;;
48205;SDS011;33995;48.202;16.260;2022-11-18T11:19:25;3.77;;;3.47;;
48205;SDS011;33995;48.202;16.260;2022-11-18T11:21:57;3.07;;;2.73;;
48205;SDS011;33995;48.202;16.260;2022-11-18T11:24:25;3.27;;;2.60;;
48205;SDS011;33995;48.202;16.260;2022-11-18T11:30:07;2.80;;;2.57;;
48205;SDS011;33995;48.202;16.260;2022-11-18T11:32:42;2.80;;;2.60;;
48205;SDS011;33995;48.202;16.260;2022-11-18T11:41:09;2.87;;;2.57;;
48205;SDS011;33995;48.202;16.260;2022-11-18T11:50:00;3.03;;;2.73;;
48205;SDS011;33995;48.202;16.260;2022-11-18T11:52:39;3.40;;;3.10;;
48205;SDS011;33995;48.202;16.260;2022-11-18T11:58:27;4.10;;;3.80;;
48205;SDS011;33995;48.202;16.260;2022-11-18T12:01:08;3.60;;;3.30;;
48205;SDS011;33995;48.202;16.260;2022-11-18T12:04:22;3.60;;;3.30;;
48205;SDS011;33995;48.202;16.260;2022-11-18T12:07:00;4.13;;;3.80;;
48205;SDS011;33995;48.202;16.260;2022-11-18T12:09:48;5.07;;;4.40;;
48205;SDS011;33995;48.202;16.260;2022-11-18T12:20:43;3.40;;;3.10;;
48205;SDS011;33995;48.202;16.260;2022-11-18T12:23:18;3.00;;;2.77;;
48205;SDS011;33995;48.202;16.260;2022-11-18T12:28:38;3.13;;;2.83;;
48205;SDS011;33995;48.202;16.260;2022-11-18T12:33:44;4.07;;;3.40;;
48205;SDS011;33995;48.202;16.260;2022-11-18T12:42:02;3.57;;;3.27;;
48205;SDS011;33995;48.202;16.260;2022-11-18T12:44:49;3.40;;;3.10;;
48205;SDS011;33995;48.202;16.260;2022-11-18T12:48:03;3.83;;;3.53;;
48205;SDS011;33995;48.202;16.260;2022-11-18T12:50:09;3.67;;;3.37;;
48205;SDS011;33995;48.202;16.260;2022-11-18T12:55:12;4.20;;;3.90;;
48205;SDS011;33995;48.202;16.260;2022-11-18T12:57:47;4.40;;;4.00;;
48205;SDS011;33995;48.202;16.260;2022-11-18T13:00:26;4.20;;;3.80;;
48205;SDS011;33995;48.202;16.260;2022-11-18T13:02:57;3.80;;;3.40;;
48205;SDS011;33995;48.202;16.260;2022-11-18T13:05:30;3.83;;;3.50;;
48205;SDS011;33995;48.202;16.260;2022-11-18T13:08:01;4.20;;;3.90;;
48205;SDS011;33995;48.202;16.260;2022-11-18T13:10:43;4.60;;;4.20;;
48205;SDS011;33995;48.202;16.260;2022-11-18T13:13:28;5.30;;;4.80;;
48205;SDS011;33995;48.202;16.260;2022-11-18T13:16:04;5.20;;;4.70;;
48205;SDS011;33995;48.202;16.260;2022-11-18T13:19:04;5.53;;;5.03;;
48205;SDS011;33995;48.202;16.260;2022-11-18T13:21:31;6.17;;;5.40;;
48205;SDS011;33995;48.202;16.260;2022-11-18T13:24:19;6.40;;;5.30;;
48205;SDS011;33995;48.202;16.260;2022-11-18T13:26:52;6.10;;;5.57;;
48205;SDS011;33995;48.202;16.260;2022-11-18T13:29:41;6.20;;;5.60;;
48205;SDS011;33995;48.202;16.260;2022-11-18T13:32:21;7.87;;;6.67;;
48205;SDS011;33995;48.202;16.260;2022-11-18T13:34:51;15.10;;;11.13;;
48205;SDS011;33995;48.202;16.260;2022-11-18T13:38:15;10.33;;;7.23;;
48205;SDS011;33995;48.202;16.260;2022-11-18T13:40:47;6.20;;;5.60;;
48205;SDS011;33995;48.202;16.260;2022-11-18T13:43:31;7.33;;;5.90;;
48205;SDS011;33995;48.202;16.260;2022-11-18T13:46:00;6.70;;;6.00;;
48205;SDS011;33995;48.202;16.260;2022-11-18T13:48:32;6.50;;;5.90;;
48205;SDS011;33995;48.202;16.260;2022-11-18T13:51:03;5.63;;;5.13;;
48205;SDS011;33995;48.202;16.260;2022-11-18T13:53:34;6.27;;;5.67;;
48205;SDS011;33995;48.202;16.260;2022-11-18T14:01:36;7.63;;;6.83;;
48205;SDS011;33995;48.202;16.260;2022-11-18T14:04:15;6.83;;;6.13;;
48205;SDS011;33995;48.202;16.260;2022-11-18T14:06:48;7.90;;;6.57;;
48205;SDS011;33995;48.202;16.260;2022-11-18T14:14:34;7.23;;;5.93;;
48205;SDS011;33995;48.202;16.260;2022-11-18T14:19:51;6.13;;;5.53;;
48205;SDS011;33995;48.202;16.260;2022-11-18T14:22:25;7.13;;;6.38;;
48205;SDS011;33995;48.202;16.260;2022-11-18T14:25:14;7.23;;;6.40;;
48205;SDS011;33995;48.202;16.260;2022-11-18T14:27:47;7.43;;;6.20;;
48205;SDS011;33995;48.202;16.260;2022-11-18T14:35:39;6.30;;;5.67;;
48205;SDS011;33995;48.202;16.260;2022-11-18T14:38:10;6.03;;;5.43;;
48205;SDS011;33995;48.202;16.260;2022-11-18T14:41:03;6.47;;;5.87;;
48205;SDS011;33995;48.202;16.260;2022-11-18T14:43:33;9.03;;;6.33;;
48205;SDS011;33995;48.202;16.260;2022-11-18T14:46:01;8.77;;;7.87;;
48205;SDS011;33995;48.202;16.260;2022-11-18T14:48:38;8.60;;;6.60;;
48205;SDS011;33995;48.202;16.260;2022-11-18T14:51:05;5.87;;;5.27;;
48205;SDS011;33995;48.202;16.260;2022-11-18T14:53:33;5.17;;;4.67;;
48205;SDS011;33995;48.202;16.260;2022-11-18T14:56:00;5.60;;;5.10;;
48205;SDS011;33995;48.202;16.260;2022-11-18T14:58:27;5.70;;;5.20;;
48205;SDS011;33995;48.202;16.260;2022-11-18T15:00:55;4.70;;;4.30;;
48205;SDS011;33995;48.202;16.260;2022-11-18T15:03:22;5.53;;;5.03;;
48205;SDS011;33995;48.202;16.260;2022-11-18T15:05:50;5.80;;;5.20;;
48205;SDS011;33995;48.202;16.260;2022-11-18T15:08:17;5.90;;;5.30;;
48205;SDS011;33995;48.202;16.260;2022-11-18T15:10:45;6.30;;;5.70;;
48205;SDS011;33995;48.202;16.260;2022-11-18T15:13:12;6.90;;;6.30;;
48205;SDS011;33995;48.202;16.260;2022-11-18T15:15:39;7.43;;;6.60;;
48205;SDS011;33995;48.202;16.260;2022-11-18T15:18:07;7.77;;;7.07;;
48205;SDS011;33995;48.202;16.260;2022-11-18T15:20:35;8.07;;;7.27;;
48205;SDS011;33995;48.202;16.260;2022-11-18T15:23:02;5.43;;;4.93;;
48205;SDS011;33995;48.202;16.260;2022-11-18T15:25:30;6.20;;;5.60;;
48205;SDS011;33995;48.202;16.260;2022-11-18T15:27:57;8.30;;;7.60;;
48205;SDS011;33995;48.202;16.260;2022-11-18T15:30:24;8.80;;;8.00;;
48205;SDS011;33995;48.202;16.260;2022-11-18T15:32:53;7.80;;;7.10;;
48205;SDS011;33995;48.202;16.260;2022-11-18T15:35:21;6.37;;;5.57;;
48205;SDS011;33995;48.202;16.260;2022-11-18T15:37:48;7.50;;;6.80;;
48205;SDS011;33995;48.202;16.260;2022-11-18T15:40:16;11.63;;;10.57;;
48205;SDS011;33995;48.202;16.260;2022-11-18T15:42:43;9.90;;;9.00;;
48205;SDS011;33995;48.202;16.260;2022-11-18T15:45:18;8.07;;;7.37;;
48205;SDS011;33995;48.202;16.260;2022-11-18T15:47:46;6.47;;;5.97;;
48205;SDS011;33995;48.202;16.260;2022-11-18T15:50:14;7.47;;;6.87;;
48205;SDS011;33995;48.202;16.260;2022-11-18T15:52:42;5.00;;;4.60;;
48205;SDS011;33995;48.202;16.260;2022-11-18T15:55:09;5.20;;;4.70;;
48205;SDS011;33995;48.202;16.260;2022-11-18T15:57:36;5.40;;;4.90;;
48205;SDS011;33995;48.202;16.260;2022-11-18T16:00:04;5.20;;;4.70;;
48205;SDS011;33995;48.202;16.260;2022-11-18T16:02:38;4.93;;;4.53;;
48205;SDS011;33995;48.202;16.260;2022-11-18T16:05:05;5.13;;;4.67;;
48205;SDS011;33995;48.202;16.260;2022-11-18T16:07:33;5.60;;;5.10;;
48205;SDS011;33995;48.202;16.260;2022-11-18T16:10:01;5.23;;;4.77;;
48205;SDS011;33995;48.202;16.260;2022-11-18T16:12:47;5.50;;;5.00;;
48205;SDS011;33995;48.202;16.260;2022-11-18T16:15:14;6.00;;;5.40;;
48205;SDS011;33995;48.202;16.260;2022-11-18T16:18:02;6.37;;;5.77;;
48205;SDS011;33995;48.202;16.260;2022-11-18T16:20:30;6.57;;;5.97;;
48205;SDS011;33995;48.202;16.260;2022-11-18T16:22:57;6.33;;;5.73;;
48205;SDS011;33995;48.202;16.260;2022-11-18T16:25:26;7.83;;;6.43;;
48205;SDS011;33995;48.202;16.260;2022-11-18T16:27:54;7.40;;;6.63;;
48205;SDS011;33995;48.202;16.260;2022-11-18T16:30:27;7.13;;;6.43;;
48205;SDS011;33995;48.202;16.260;2022-11-18T16:33:13;7.33;;;6.63;;
48205;SDS011;33995;48.202;16.260;2022-11-18T16:35:47;7.70;;;6.87;;
48205;SDS011;33995;48.202;16.260;2022-11-18T16:38:15;8.00;;;7.20;;
48205;SDS011;33995;48.202;16.260;2022-11-18T16:40:43;8.30;;;7.50;;
48205;SDS011;33995;48.202;16.260;2022-11-18T16:43:10;8.50;;;7.70;;
48205;SDS011;33995;48.202;16.260;2022-11-18T16:45:38;8.80;;;8.00;;
48205;SDS011;33995;48.202;16.260;2022-11-18T16:48:05;9.47;;;8.57;;
48205;SDS011;33995;48.202;16.260;2022-11-18T16:50:33;8.93;;;8.03;;
48205;SDS011;33995;48.202;16.260;2022-11-18T16:53:00;9.40;;;8.50;;